Time;durP1;ratioP1;P1;durP2;ratioP2;P2;SDS_P1;SDS_P2;PMS_P1;PMS_P2;Temp;Humidity;BMP_temperature;BMP_pressure;BME280_temperature;BME280_humidity;BME280_pressure;Samples;Min_cycle;Max_cycle;Signal;HPM_P1;HPM_P2
2023/04/27 00:02:18;;;;;;;13.27;5.80;;;5.80;99.90;;;;;;6186661;23;20164;-73
2023/04/27 00:04:46;;;;;;;12.23;6.03;;;5.70;99.90;;;;;;6186078;23;20618;-73
2023/04/27 00:07:13;;;;;;;7.70;6.28;;;5.70;99.90;;;;;;6186784;23;20260;-72
2023/04/27 00:09:40;;;;;;;18.27;8.65;;;5.60;99.90;;;;;;6185849;23;20288;-73
2023/04/27 00:12:07;;;;;;;8.77;7.78;;;5.60;99.90;;;;;;6186486;23;20642;-72
2023/04/27 00:14:34;;;;;;;8.93;5.45;;;5.50;99.90;;;;;;6186590;23;20243;-71
2023/04/27 00:17:00;;;;;;;9.18;6.20;;;5.50;99.90;;;;;;6186583;23;20570;-72
2023/04/27 00:19:29;;;;;;;11.38;6.60;;;5.50;99.90;;;;;;6186129;23;20200;-72
2023/04/27 00:21:58;;;;;;;15.23;7.25;;;5.40;99.90;;;;;;6186365;23;20240;-72
2023/04/27 00:24:26;;;;;;;10.93;6.50;;;5.40;99.90;;;;;;6186689;23;20165;-71
2023/04/27 00:26:53;;;;;;;13.02;6.78;;;5.40;99.90;;;;;;6185774;23;20184;-72
2023/04/27 00:29:20;;;;;;;9.23;6.75;;;5.40;99.90;;;;;;6186662;23;20283;-71
2023/04/27 00:31:46;;;;;;;11.45;6.43;;;5.40;99.90;;;;;;6185953;23;20231;-71
2023/04/27 00:34:13;;;;;;;10.20;5.75;;;5.40;99.90;;;;;;6185881;23;20196;-72
2023/04/27 00:36:40;;;;;;;8.68;6.80;;;5.40;99.90;;;;;;6186313;23;20195;-72
2023/04/27 00:39:09;;;;;;;9.80;5.72;;;5.30;99.90;;;;;;6185505;23;20706;-72
2023/04/27 00:41:38;;;;;;;8.00;6.25;;;5.30;99.90;;;;;;6185221;23;20196;-72
2023/04/27 00:44:05;;;;;;;8.70;6.97;;;5.30;99.90;;;;;;6185777;23;20168;-72
2023/04/27 00:46:33;;;;;;;18.27;7.43;;;5.30;99.90;;;;;;6186207;23;20267;-73
2023/04/27 00:49:01;;;;;;;10.38;6.10;;;5.40;99.90;;;;;;6185618;23;20532;-73
2023/04/27 00:51:30;;;;;;;9.07;5.35;;;5.30;99.90;;;;;;6184309;23;20260;-73
2023/04/27 00:53:58;;;;;;;6.40;5.05;;;5.30;99.90;;;;;;6186519;23;20164;-71
2023/04/27 00:56:37;;;;;;;8.95;6.15;;;5.20;99.90;;;;;;6186291;23;20511;-72
2023/04/27 00:59:04;;;;;;;6.85;6.13;;;5.20;99.90;;;;;;6186295;23;20540;-72
2023/04/27 01:01:31;;;;;;;11.55;6.72;;;5.20;99.90;;;;;;6185593;23;20165;-74
2023/04/27 01:03:59;;;;;;;12.57;7.32;;;5.10;99.90;;;;;;6186310;23;20204;-72
2023/04/27 01:06:29;;;;;;;11.50;6.55;;;5.10;99.90;;;;;;6185527;23;20219;-73
2023/04/27 01:08:59;;;;;;;8.45;6.30;;;5.10;99.90;;;;;;6186106;23;20276;-73
2023/04/27 01:11:26;;;;;;;9.38;6.40;;;5.10;99.90;;;;;;6185488;23;20531;-73
2023/04/27 01:13:55;;;;;;;11.85;5.93;;;5.00;99.90;;;;;;6186450;23;20171;-72
2023/04/27 01:16:23;;;;;;;12.75;7.65;;;5.00;99.90;;;;;;6186292;23;20188;-72
2023/04/27 01:18:50;;;;;;;13.20;8.52;;;5.00;99.90;;;;;;6184729;23;20196;-74
2023/04/27 01:21:17;;;;;;;10.48;6.25;;;5.10;99.90;;;;;;6185964;23;20160;-72
2023/04/27 01:23:45;;;;;;;10.00;5.65;;;5.00;99.90;;;;;;6185523;23;20182;-72
2023/04/27 01:26:15;;;;;;;13.13;7.00;;;5.00;99.90;;;;;;6186260;23;20172;-72
2023/04/27 01:28:42;;;;;;;13.82;6.30;;;5.00;99.90;;;;;;6185918;23;20267;-73
2023/04/27 01:31:11;;;;;;;13.98;7.20;;;5.00;99.90;;;;;;6186305;23;20164;-72
2023/04/27 01:33:38;;;;;;;9.65;6.60;;;5.00;99.90;;;;;;6185642;23;20168;-72
2023/04/27 01:36:06;;;;;;;13.55;6.35;;;4.90;99.90;;;;;;6186363;23;20231;-72
2023/04/27 01:38:33;;;;;;;10.02;7.15;;;4.80;99.90;;;;;;6185812;23;20201;-72
2023/04/27 01:41:04;;;;;;;10.00;6.85;;;4.80;99.90;;;;;;6185385;23;20168;-72
2023/04/27 01:43:32;;;;;;;11.48;6.97;;;4.80;99.90;;;;;;6186452;23;20168;-74
2023/04/27 01:46:06;;;;;;;9.52;6.45;;;4.80;99.90;;;;;;6185970;23;20165;-73
2023/04/27 01:48:33;;;;;;;8.75;5.57;;;4.70;99.90;;;;;;6185910;23;20232;-72
2023/04/27 01:51:00;;;;;;;10.82;6.03;;;4.70;99.90;;;;;;6185767;23;20168;-72
2023/04/27 01:53:28;;;;;;;12.10;7.90;;;4.70;99.90;;;;;;6186608;23;20176;-72
2023/04/27 01:55:55;;;;;;;12.63;6.85;;;4.70;99.90;;;;;;6186728;23;20295;-73
2023/04/27 01:58:23;;;;;;;8.70;6.40;;;4.70;99.90;;;;;;6185938;23;20185;-71
2023/04/27 02:00:51;;;;;;;8.50;6.25;;;4.70;99.90;;;;;;6186949;23;20219;-72
2023/04/27 02:03:18;;;;;;;11.13;6.75;;;4.60;99.90;;;;;;6190912;23;20580;-73
2023/04/27 02:05:46;;;;;;;9.85;6.35;;;4.60;99.90;;;;;;6192879;23;20167;-72
2023/04/27 02:08:13;;;;;;;10.05;6.53;;;4.60;99.90;;;;;;6194462;23;20247;-72
2023/04/27 02:10:42;;;;;;;12.27;7.03;;;4.50;99.90;;;;;;6196329;23;20164;-71
2023/04/27 02:13:09;;;;;;;8.13;6.22;;;4.50;99.90;;;;;;6192975;23;20214;-73
2023/04/27 02:15:47;;;;;;;9.38;6.50;;;4.60;99.90;;;;;;6186926;23;20494;-73
2023/04/27 02:18:15;;;;;;;15.07;6.72;;;4.50;99.90;;;;;;6185444;23;20792;-73
2023/04/27 02:20:42;;;;;;;11.93;6.15;;;4.50;99.90;;;;;;6185580;23;20168;-73
2023/04/27 02:23:10;;;;;;;9.95;6.20;;;4.40;99.90;;;;;;6186070;23;20164;-71
2023/04/27 02:25:37;;;;;;;11.27;6.28;;;4.50;99.90;;;;;;6185937;23;20255;-72
2023/04/27 02:28:05;;;;;;;10.82;7.45;;;4.50;99.90;;;;;;6185622;23;20200;-72
2023/04/27 02:30:32;;;;;;;9.90;6.35;;;4.40;99.90;;;;;;6185643;23;20231;-72
2023/04/27 02:33:00;;;;;;;11.63;7.18;;;4.40;99.90;;;;;;6186100;23;20581;-73
2023/04/27 02:35:27;;;;;;;11.00;6.45;;;4.40;99.90;;;;;;6186072;23;20542;-72
2023/04/27 02:37:54;;;;;;;9.75;7.05;;;4.40;99.90;;;;;;6185358;23;20239;-71
2023/04/27 02:40:21;;;;;;;11.30;8.32;;;4.40;99.90;;;;;;6184732;23;20236;-71
2023/04/27 02:42:48;;;;;;;10.45;6.60;;;4.30;99.90;;;;;;6184984;23;20197;-72
2023/04/27 02:45:15;;;;;;;8.55;6.05;;;4.30;99.90;;;;;;6185655;23;20239;-71
2023/04/27 02:47:42;;;;;;;7.30;6.30;;;4.30;99.90;;;;;;6185285;23;20263;-71
2023/04/27 02:50:12;;;;;;;12.38;8.15;;;4.30;99.90;;;;;;6184008;23;20271;-73
2023/04/27 02:52:39;;;;;;;10.32;6.53;;;4.20;99.90;;;;;;6185380;23;20167;-72
2023/04/27 02:55:07;;;;;;;7.50;6.72;;;4.20;99.90;;;;;;6186238;23;20171;-70
2023/04/27 02:57:34;;;;;;;10.35;6.97;;;4.20;99.90;;;;;;6190856;23;20161;-72
2023/04/27 03:00:01;;;;;;;10.18;7.50;;;4.20;99.90;;;;;;6195293;23;20275;-69
2023/04/27 03:02:27;;;;;;;21.50;7.03;;;4.20;99.90;;;;;;6200147;23;20164;-73
2023/04/27 03:04:54;;;;;;;12.77;6.45;;;4.20;99.90;;;;;;6199951;23;20189;-72
2023/04/27 03:07:23;;;;;;;11.07;8.15;;;4.20;99.90;;;;;;6188523;23;20572;-71
2023/04/27 03:09:50;;;;;;;16.23;7.70;;;4.10;99.90;;;;;;6184451;23;20235;-71
2023/04/27 03:12:17;;;;;;;13.27;7.40;;;4.10;99.90;;;;;;6185232;23;20596;-73
2023/04/27 03:14:44;;;;;;;12.10;7.13;;;4.10;99.90;;;;;;6184818;23;20165;-72
2023/04/27 03:17:11;;;;;;;10.13;7.53;;;4.20;99.90;;;;;;6185487;23;20659;-73
2023/04/27 03:19:38;;;;;;;18.25;7.72;;;4.10;99.90;;;;;;6183583;23;20200;-72
2023/04/27 03:22:05;;;;;;;13.90;7.88;;;4.10;99.90;;;;;;6186058;23;20168;-73
2023/04/27 03:24:33;;;;;;;14.13;8.10;;;4.10;99.90;;;;;;6186869;23;20200;-72
2023/04/27 03:27:01;;;;;;;10.32;6.82;;;4.10;99.90;;;;;;6186565;23;20161;-74
2023/04/27 03:29:28;;;;;;;10.95;7.90;;;4.10;99.90;;;;;;6159800;23;20200;-73
2023/04/27 03:31:55;;;;;;;11.57;7.85;;;4.10;99.90;;;;;;6186569;23;20554;-72
2023/04/27 03:34:22;;;;;;;11.38;7.30;;;4.10;99.90;;;;;;6187185;23;20244;-72
2023/04/27 03:36:49;;;;;;;10.90;7.03;;;4.10;99.90;;;;;;6186656;23;20173;-71
2023/04/27 03:39:16;;;;;;;12.98;7.32;;;4.10;99.90;;;;;;6186305;23;21013;-71
2023/04/27 03:41:45;;;;;;;10.50;7.32;;;4.10;99.90;;;;;;6186088;23;20195;-72
2023/04/27 03:44:11;;;;;;;13.38;7.63;;;4.10;99.90;;;;;;6187869;23;20251;-71
2023/04/27 03:46:39;;;;;;;13.57;8.18;;;4.10;99.90;;;;;;6187204;23;20240;-72
2023/04/27 03:49:06;;;;;;;11.93;8.05;;;4.10;99.90;;;;;;6186335;23;20261;-72
2023/04/27 03:51:33;;;;;;;21.05;8.52;;;4.10;99.90;;;;;;6186246;23;20244;-72
2023/04/27 03:54:00;;;;;;;11.82;7.20;;;4.10;99.90;;;;;;6186205;23;20240;-72
2023/04/27 03:56:27;;;;;;;12.77;8.75;;;4.00;99.90;;;;;;6186525;23;20195;-71
2023/04/27 03:58:55;;;;;;;12.48;7.30;;;4.00;99.90;;;;;;6185992;23;20235;-71
2023/04/27 04:01:23;;;;;;;11.50;7.15;;;4.00;99.90;;;;;;6186247;23;20196;-71
2023/04/27 04:03:50;;;;;;;19.38;7.57;;;4.00;99.90;;;;;;6186123;23;20161;-72
2023/04/27 04:06:17;;;;;;;12.95;7.50;;;4.00;99.90;;;;;;6186756;23;20160;-72
2023/04/27 04:08:44;;;;;;;18.27;8.90;;;4.00;99.90;;;;;;6185903;23;20283;-73
2023/04/27 04:11:11;;;;;;;10.43;8.10;;;4.00;99.90;;;;;;6185840;23;20168;-72
2023/04/27 04:13:38;;;;;;;10.48;7.65;;;4.10;99.90;;;;;;6186355;23;20664;-71
2023/04/27 04:16:08;;;;;;;15.02;7.75;;;4.10;99.90;;;;;;6186544;23;20199;-72
2023/04/27 04:18:36;;;;;;;16.30;8.02;;;4.10;99.90;;;;;;6186515;23;20267;-72
2023/04/27 04:21:04;;;;;;;13.82;8.85;;;4.20;99.90;;;;;;6185466;23;20160;-72
2023/04/27 04:23:31;;;;;;;15.02;7.97;;;4.20;99.90;;;;;;6186693;23;20240;-71
2023/04/27 04:25:58;;;;;;;10.20;7.45;;;4.20;99.90;;;;;;6186033;23;20215;-73
2023/04/27 04:28:25;;;;;;;14.18;7.78;;;4.20;99.90;;;;;;6186089;23;20197;-71
2023/04/27 04:30:52;;;;;;;12.75;8.18;;;4.20;99.90;;;;;;6185325;23;20168;-72
2023/04/27 04:33:20;;;;;;;13.45;9.18;;;4.30;99.90;;;;;;6185850;23;20183;-72
2023/04/27 04:35:47;;;;;;;18.52;8.32;;;4.30;99.90;;;;;;6186184;23;20238;-72
2023/04/27 04:38:15;;;;;;;15.55;8.10;;;4.30;99.90;;;;;;6185972;23;20199;-71
2023/04/27 04:40:42;;;;;;;12.35;7.70;;;4.40;99.90;;;;;;6185791;23;20199;-72
2023/04/27 04:43:08;;;;;;;13.75;8.38;;;4.40;99.90;;;;;;6187031;23;20192;-72
2023/04/27 04:45:35;;;;;;;15.52;7.90;;;4.40;99.90;;;;;;6187180;23;20172;-73
2023/04/27 04:48:03;;;;;;;12.77;7.50;;;4.50;99.90;;;;;;6189891;23;20226;-73
2023/04/27 04:50:32;;;;;;;11.52;7.90;;;4.50;99.90;;;;;;6190248;23;20258;-72
2023/04/27 04:52:59;;;;;;;13.40;7.35;;;4.60;99.90;;;;;;6193221;23;20210;-71
2023/04/27 04:55:27;;;;;;;17.02;8.20;;;4.70;99.90;;;;;;6191931;23;20620;-73
2023/04/27 04:57:54;;;;;;;14.15;7.82;;;4.70;99.90;;;;;;6192875;23;20167;-72
2023/04/27 05:00:22;;;;;;;15.75;7.68;;;4.80;99.90;;;;;;6185725;23;20200;-71
2023/04/27 05:02:49;;;;;;;14.00;8.00;;;5.00;99.90;;;;;;6185791;23;20165;-72
2023/04/27 05:05:15;;;;;;;11.60;7.10;;;5.40;99.90;;;;;;6185962;23;20196;-74
2023/04/27 05:07:44;;;;;;;8.27;5.50;;;6.20;99.90;;;;;;6185987;23;20196;-72
2023/04/27 05:10:13;;;;;;;9.63;6.65;;;7.00;99.90;;;;;;6184976;23;20690;-74
2023/04/27 05:12:40;;;;;;;8.40;5.72;;;7.80;99.90;;;;;;6185734;23;20537;-72
2023/04/27 05:15:07;;;;;;;10.55;5.60;;;8.40;99.90;;;;;;6186117;23;20244;-72
2023/04/27 05:17:34;;;;;;;6.13;4.85;;;9.10;99.90;;;;;;6185579;23;20200;-72
2023/04/27 05:20:03;;;;;;;13.27;5.93;;;9.70;99.90;;;;;;6184635;23;20200;-73
2023/04/27 05:22:30;;;;;;;6.97;6.10;;;10.20;99.90;;;;;;6185441;23;20161;-74
2023/04/27 05:25:00;;;;;;;9.32;6.30;;;10.60;99.90;;;;;;6186084;23;20164;-73
2023/04/27 05:27:27;;;;;;;9.50;6.03;;;11.00;99.90;;;;;;6188381;23;20192;-73
2023/04/27 05:29:54;;;;;;;7.30;5.60;;;11.50;99.90;;;;;;6184765;23;20207;-72
2023/04/27 05:32:20;;;;;;;6.53;5.00;;;12.20;99.90;;;;;;6186258;23;20307;-71
2023/04/27 05:34:47;;;;;;;7.32;5.03;;;13.00;97.60;;;;;;6185363;23;20175;-74
2023/04/27 05:37:14;;;;;;;8.35;5.00;;;13.80;95.60;;;;;;6185292;23;20667;-74
2023/04/27 05:39:41;;;;;;;7.40;5.25;;;14.90;93.00;;;;;;6184284;23;20275;-74
2023/04/27 05:42:09;;;;;;;11.88;5.90;;;15.50;90.70;;;;;;6185505;23;20653;-72
2023/04/27 05:44:36;;;;;;;8.73;4.75;;;15.60;87.80;;;;;;6185161;23;20194;-74
2023/04/27 05:47:03;;;;;;;10.80;5.70;;;16.00;87.30;;;;;;6185719;23;20167;-74
2023/04/27 05:49:30;;;;;;;7.95;6.07;;;16.20;85.90;;;;;;6184874;23;20256;-73
2023/04/27 05:51:57;;;;;;;6.47;5.45;;;15.90;84.70;;;;;;6185177;23;20169;-75
2023/04/27 05:54:24;;;;;;;10.20;5.33;;;15.70;86.00;;;;;;6186069;23;20164;-74
2023/04/27 05:56:51;;;;;;;8.90;5.13;;;16.40;86.40;;;;;;6184930;23;20399;-73
2023/04/27 05:59:20;;;;;;;9.20;6.33;;;17.20;83.30;;;;;;6184957;23;20483;-74
2023/04/27 06:01:47;;;;;;;14.50;5.70;;;17.80;81.30;;;;;;6184620;23;20400;-73
2023/04/27 06:04:14;;;;;;;9.53;6.13;;;18.30;79.50;;;;;;6185512;23;20403;-73
2023/04/27 06:06:41;;;;;;;8.10;5.87;;;18.50;78.40;;;;;;6185281;23;20423;-74
2023/04/27 06:09:08;;;;;;;7.43;5.20;;;19.00;77.20;;;;;;6185336;23;20518;-75
2023/04/27 06:11:35;;;;;;;9.10;5.77;;;19.60;76.00;;;;;;6184539;23;20396;-75
2023/04/27 06:14:02;;;;;;;19.87;6.13;;;19.90;74.80;;;;;;6185284;23;20455;-72
2023/04/27 06:16:30;;;;;;;9.40;5.80;;;19.90;73.10;;;;;;6185061;23;20927;-71
2023/04/27 06:18:58;;;;;;;8.13;4.43;;;20.40;72.50;;;;;;6184378;23;20907;-73
2023/04/27 06:21:25;;;;;;;7.83;4.40;;;20.60;71.30;;;;;;6184399;23;20771;-74
2023/04/27 06:23:52;;;;;;;8.47;4.80;;;21.00;70.70;;;;;;6185257;23;20411;-71
2023/04/27 06:26:19;;;;;;;8.53;5.07;;;21.20;69.20;;;;;;6185030;23;20424;-76
2023/04/27 06:28:45;;;;;;;10.30;4.97;;;21.10;69.70;;;;;;6184340;23;20522;-72
2023/04/27 06:31:12;;;;;;;7.63;4.93;;;21.50;68.40;;;;;;6184363;23;20392;-71
2023/04/27 06:33:41;;;;;;;7.00;4.00;;;21.00;67.90;;;;;;6184973;23;20403;-70
2023/04/27 06:36:08;;;;;;;12.43;4.97;;;20.70;67.70;;;;;;6184926;23;20388;-72
2023/04/27 06:38:35;;;;;;;9.53;4.90;;;21.10;67.90;;;;;;6184846;23;20503;-72
2023/04/27 06:41:03;;;;;;;6.50;3.70;;;21.50;68.40;;;;;;6184033;23;20475;-72
2023/04/27 06:43:30;;;;;;;7.53;4.40;;;21.80;66.40;;;;;;6185026;23;20422;-72
2023/04/27 06:45:57;;;;;;;8.03;4.43;;;21.60;65.50;;;;;;6185258;23;20415;-72
2023/04/27 06:48:24;;;;;;;13.50;5.73;;;22.00;65.20;;;;;;6184529;23;20431;-71
2023/04/27 06:50:52;;;;;;;11.00;5.00;;;22.10;66.30;;;;;;6182282;23;21302;-72
2023/04/27 06:53:19;;;;;;;5.70;3.50;;;21.80;63.90;;;;;;6183725;23;20475;-72
2023/04/27 06:55:46;;;;;;;10.83;4.53;;;21.10;64.70;;;;;;6184748;23;20420;-72
2023/04/27 06:58:13;;;;;;;6.23;3.90;;;20.70;66.40;;;;;;6184416;23;20418;-71
2023/04/27 07:00:40;;;;;;;9.47;4.80;;;20.70;66.40;;;;;;6183303;23;20844;-71
2023/04/27 07:03:06;;;;;;;6.00;4.10;;;19.80;67.00;;;;;;6184430;23;20398;-73
2023/04/27 07:05:34;;;;;;;8.13;4.37;;;20.00;67.30;;;;;;6184445;23;20482;-69
2023/04/27 07:08:03;;;;;;;4.20;3.53;;;20.60;67.20;;;;;;6185036;23;20475;-70
2023/04/27 07:10:30;;;;;;;6.57;4.87;;;21.10;66.30;;;;;;6185452;23;20448;-71
2023/04/27 07:12:57;;;;;;;5.80;3.20;;;20.60;66.30;;;;;;6186205;23;20410;-73
2023/04/27 07:15:24;;;;;;;6.00;3.73;;;20.80;64.00;;;;;;6184759;23;20398;-72
2023/04/27 07:17:52;;;;;;;7.70;4.50;;;20.40;66.20;;;;;;6185042;23;20495;-72
2023/04/27 07:20:20;;;;;;;7.73;4.10;;;20.80;66.50;;;;;;6184792;23;20795;-70
2023/04/27 07:22:46;;;;;;;7.40;3.23;;;20.60;64.40;;;;;;6185101;23;20400;-70
2023/04/27 07:25:15;;;;;;;5.97;3.87;;;19.80;65.90;;;;;;6185187;23;20949;-72
2023/04/27 07:27:42;;;;;;;9.80;4.30;;;20.10;66.90;;;;;;6185310;23;20429;-72
2023/04/27 07:30:12;;;;;;;7.57;4.80;;;20.40;66.10;;;;;;6185347;23;20447;-72
2023/04/27 07:32:40;;;;;;;5.07;3.87;;;20.30;65.50;;;;;;6186449;23;20475;-73
2023/04/27 07:35:08;;;;;;;5.10;3.80;;;20.90;66.00;;;;;;6187399;23;20426;-71
2023/04/27 07:37:37;;;;;;;5.27;3.23;;;21.30;65.60;;;;;;6189978;23;20399;-71
2023/04/27 07:40:09;;;;;;;6.30;3.90;;;21.60;62.90;;;;;;6191326;23;20501;-71
2023/04/27 07:42:40;;;;;;;9.70;4.47;;;20.70;63.10;;;;;;6195697;23;20427;-71
2023/04/27 07:45:08;;;;;;;3.97;3.47;;;20.40;64.80;;;;;;6196118;23;20937;-72
2023/04/27 07:47:36;;;;;;;6.07;3.80;;;20.50;65.90;;;;;;6195741;23;20394;-70
2023/04/27 07:50:05;;;;;;;8.77;2.90;;;21.30;65.90;;;;;;6185670;23;20455;-73
2023/04/27 07:52:32;;;;;;;6.53;3.73;;;22.30;63.40;;;;;;6185365;23;20488;-74
2023/04/27 07:54:58;;;;;;;6.20;4.00;;;22.70;60.60;;;;;;6184152;23;20397;-74
2023/04/27 07:57:25;;;;;;;6.47;3.40;;;22.40;59.40;;;;;;6184834;23;20392;-74
2023/04/27 07:59:54;;;;;;;5.20;2.93;;;22.80;59.40;;;;;;6183552;23;20454;-70
2023/04/27 08:02:21;;;;;;;9.10;2.73;;;22.60;58.00;;;;;;6185497;23;20479;-74
2023/04/27 08:04:49;;;;;;;13.87;2.90;;;23.50;58.80;;;;;;6185185;23;20401;-74
2023/04/27 08:07:16;;;;;;;15.73;3.70;;;23.60;56.80;;;;;;6184404;23;20863;-71
2023/04/27 08:09:43;;;;;;;4.53;2.83;;;22.60;56.90;;;;;;6185269;23;20490;-71
2023/04/27 08:12:11;;;;;;;9.13;3.43;;;22.10;58.40;;;;;;6186154;23;20432;-72
2023/04/27 08:14:38;;;;;;;4.80;3.30;;;22.50;58.50;;;;;;6185575;23;20475;-72
2023/04/27 08:17:06;;;;;;;6.37;3.30;;;21.80;57.20;;;;;;6186119;23;20559;-73
2023/04/27 08:19:33;;;;;;;8.17;3.10;;;21.10;56.00;;;;;;6185422;23;20465;-74
2023/04/27 08:22:00;;;;;;;4.97;3.23;;;20.90;57.40;;;;;;6186754;23;20473;-71
2023/04/27 08:24:27;;;;;;;4.23;3.37;;;21.20;57.80;;;;;;6186270;23;20395;-71
2023/04/27 08:26:54;;;;;;;4.63;2.90;;;20.10;57.20;;;;;;6185327;23;20525;-73
2023/04/27 08:29:21;;;;;;;8.83;3.23;;;19.20;58.40;;;;;;6185134;23;20451;-73
2023/04/27 08:31:48;;;;;;;5.77;3.23;;;19.80;60.80;;;;;;6185603;23;20393;-74
2023/04/27 08:34:16;;;;;;;5.27;2.50;;;20.70;59.40;;;;;;6185917;23;20751;-75
2023/04/27 08:36:43;;;;;;;6.83;2.53;;;21.50;56.40;;;;;;6185983;23;20878;-72
2023/04/27 08:39:10;;;;;;;3.87;2.67;;;22.00;55.40;;;;;;6185443;23;20502;-74
2023/04/27 08:41:41;;;;;;;4.43;2.90;;;22.60;55.10;;;;;;6184830;23;20398;-73
2023/04/27 08:44:08;;;;;;;6.13;3.67;;;23.00;54.10;;;;;;6185762;23;21071;-74
2023/04/27 08:46:37;;;;;;;4.50;2.97;;;23.00;53.00;;;;;;6185923;23;20492;-70
2023/04/27 08:49:05;;;;;;;3.80;2.57;;;22.90;52.20;;;;;;6185707;23;20989;-74
2023/04/27 08:51:34;;;;;;;4.27;3.43;;;22.30;52.80;;;;;;6185112;23;20392;-73
2023/04/27 08:54:01;;;;;;;4.60;3.27;;;21.70;53.40;;;;;;6185383;23;20771;-74
2023/04/27 08:56:29;;;;;;;5.20;2.37;;;21.20;53.50;;;;;;6185585;23;20471;-74
2023/04/27 08:58:57;;;;;;;4.80;3.03;;;21.70;54.50;;;;;;6186035;23;20431;-75
2023/04/27 09:01:26;;;;;;;3.73;2.83;;;22.40;52.80;;;;;;6184580;23;20415;-71
2023/04/27 09:03:57;;;;;;;6.50;3.60;;;22.10;53.70;;;;;;6185448;23;20460;-75
2023/04/27 09:06:30;;;;;;;6.10;3.90;;;22.60;51.50;;;;;;6185516;23;20440;-72
2023/04/27 09:08:58;;;;;;;12.50;3.60;;;21.60;52.00;;;;;;6184773;23;20945;-74
2023/04/27 09:11:30;;;;;;;5.30;3.50;;;21.10;53.40;;;;;;6184764;23;20910;-72
2023/04/27 09:13:58;;;;;;;5.50;3.20;;;21.50;53.30;;;;;;6185120;23;20921;-71
2023/04/27 09:16:28;;;;;;;4.60;2.97;;;21.50;52.80;;;;;;6186113;23;20398;-72
2023/04/27 09:18:56;;;;;;;9.03;4.20;;;21.80;52.40;;;;;;6184925;23;20428;-75
2023/04/27 09:21:23;;;;;;;6.10;3.30;;;21.80;51.40;;;;;;6185172;23;20475;-74
2023/04/27 09:23:50;;;;;;;6.57;3.13;;;21.20;51.50;;;;;;6185287;23;20398;-72
2023/04/27 09:26:22;;;;;;;5.20;2.93;;;20.90;53.30;;;;;;6185766;23;20790;-73
2023/04/27 09:28:51;;;;;;;5.17;3.00;;;21.60;54.10;;;;;;6184417;23;21012;-75
2023/04/27 09:31:19;;;;;;;9.20;4.60;;;21.80;52.60;;;;;;6185412;23;20438;-74
2023/04/27 09:33:47;;;;;;;7.80;3.90;;;21.70;52.30;;;;;;6185014;23;20782;-72
2023/04/27 09:36:14;;;;;;;3.47;3.13;;;21.80;51.40;;;;;;6185185;23;20484;-73
2023/04/27 09:38:41;;;;;;;5.40;3.43;;;21.70;53.00;;;;;;6184472;23;20435;-73
2023/04/27 09:41:08;;;;;;;8.23;3.60;;;20.60;52.00;;;;;;6182571;23;20391;-74
2023/04/27 09:43:40;;;;;;;4.27;3.03;;;20.10;52.60;;;;;;6182894;23;20385;-72
2023/04/27 09:46:07;;;;;;;31.67;7.20;;;19.30;53.10;;;;;;6183137;23;20475;-74
2023/04/27 09:48:33;;;;;;;5.03;3.20;;;19.80;54.40;;;;;;6183463;23;20925;-73
2023/04/27 09:51:02;;;;;;;6.90;3.37;;;20.00;51.90;;;;;;6183519;23;20513;-72
2023/04/27 09:53:34;;;;;;;3.87;3.40;;;20.40;52.20;;;;;;6184206;23;20391;-73
2023/04/27 09:56:15;;;;;;;4.00;3.60;;;20.60;53.00;;;;;;6184684;23;20400;-73
2023/04/27 09:59:15;;;;;;;3.37;3.07;;;20.80;52.50;;;;;;6184281;23;20804;-72
2023/04/27 10:01:47;;;;;;;10.40;3.60;;;21.40;51.70;;;;;;6183525;23;20434;-73
2023/04/27 10:04:29;;;;;;;8.43;3.47;;;20.70;52.40;;;;;;6185215;23;20391;-73
2023/04/27 10:07:01;;;;;;;3.10;2.67;;;20.00;50.20;;;;;;6185134;23;20406;-74
2023/04/27 10:09:34;;;;;;;2.97;2.67;;;19.90;53.60;;;;;;6184078;23;20477;-71
2023/04/27 10:12:15;;;;;;;6.00;3.27;;;20.10;53.60;;;;;;6185419;23;20402;-73
2023/04/27 10:14:51;;;;;;;6.13;3.30;;;19.80;53.00;;;;;;6184850;23;20725;-71
2023/04/27 10:17:23;;;;;;;3.87;3.33;;;20.00;54.40;;;;;;6184743;23;20474;-70
2023/04/27 10:19:54;;;;;;;6.23;3.50;;;19.00;52.40;;;;;;6183907;23;20425;-73
2023/04/27 10:22:22;;;;;;;6.20;4.00;;;19.40;53.20;;;;;;6184605;23;20432;-73
2023/04/27 10:24:50;;;;;;;5.30;3.10;;;18.50;53.60;;;;;;6184351;23;20476;-75
2023/04/27 10:27:21;;;;;;;4.27;3.13;;;17.70;54.30;;;;;;6184570;23;20428;-73
2023/04/27 10:29:50;;;;;;;9.65;4.05;;;17.10;54.20;;;;;;6183570;23;20447;-73
2023/04/27 10:32:23;;;;;;;5.00;3.70;;;16.60;57.00;;;;;;6184194;23;20245;-72
2023/04/27 10:34:51;;;;;;;3.72;3.42;;;16.20;57.90;;;;;;6185244;23;20254;-73
2023/04/27 10:37:23;;;;;;;4.05;3.67;;;15.70;59.40;;;;;;6184227;23;20167;-72
2023/04/27 10:39:50;;;;;;;4.88;4.43;;;15.60;59.50;;;;;;6183781;23;20253;-73
2023/04/27 10:42:28;;;;;;;5.40;4.10;;;15.50;60.00;;;;;;6184916;23;20165;-73
2023/04/27 10:44:57;;;;;;;4.82;4.05;;;15.40;59.60;;;;;;6184897;23;20187;-73
2023/04/27 10:47:24;;;;;;;9.13;4.40;;;15.10;58.20;;;;;;6184936;23;20166;-71
2023/04/27 10:49:53;;;;;;;6.10;4.63;;;14.80;61.40;;;;;;6183834;23;20211;-73
2023/04/27 10:52:20;;;;;;;12.63;4.88;;;14.60;62.40;;;;;;6184300;23;20196;-72
2023/04/27 10:54:47;;;;;;;5.10;4.22;;;14.50;63.10;;;;;;6184549;23;20483;-73
2023/04/27 10:57:15;;;;;;;5.35;4.82;;;14.20;62.80;;;;;;6185245;23;20403;-74
2023/04/27 10:59:49;;;;;;;7.40;4.95;;;14.50;64.50;;;;;;6183191;23;20193;-74
2023/04/27 11:02:24;;;;;;;6.57;4.65;;;14.90;63.20;;;;;;6184716;23;20183;-70
2023/04/27 11:04:51;;;;;;;9.73;4.85;;;15.00;61.80;;;;;;6184519;23;20164;-74
2023/04/27 11:07:24;;;;;;;5.88;4.40;;;15.20;61.90;;;;;;6184506;23;20216;-73
2023/04/27 11:09:51;;;;;;;5.10;4.50;;;15.30;61.10;;;;;;6183666;23;20585;-70
2023/04/27 11:12:18;;;;;;;9.43;4.65;;;15.50;61.10;;;;;;6184961;23;20176;-72
2023/04/27 11:14:46;;;;;;;4.25;3.85;;;15.50;60.40;;;;;;6184550;23;20199;-73
2023/04/27 11:17:13;;;;;;;13.50;4.68;;;15.60;60.90;;;;;;6183794;23;20182;-73
2023/04/27 11:19:47;;;;;;;5.15;4.65;;;15.50;61.00;;;;;;6183895;23;20198;-75
2023/04/27 11:22:16;;;;;;;8.17;4.63;;;15.60;61.60;;;;;;6184128;23;20560;-73
2023/04/27 11:24:50;;;;;;;7.93;4.65;;;15.60;61.30;;;;;;6184501;23;20389;-72
2023/04/27 11:27:17;;;;;;;7.28;4.53;;;15.30;61.70;;;;;;6184143;23;20269;-72
2023/04/27 11:29:44;;;;;;;5.68;5.13;;;15.00;60.70;;;;;;6183475;23;20200;-73
2023/04/27 11:32:19;;;;;;;6.93;4.55;;;14.90;60.90;;;;;;6183551;23;20180;-71
2023/04/27 11:34:51;;;;;;;4.88;4.22;;;14.60;63.30;;;;;;6184684;23;20168;-71
2023/04/27 11:37:23;;;;;;;8.98;5.03;;;14.50;62.80;;;;;;6183864;23;20161;-73
2023/04/27 11:39:50;;;;;;;5.38;4.50;;;14.60;63.00;;;;;;6183933;23;20204;-73
2023/04/27 11:42:21;;;;;;;7.28;4.50;;;14.70;62.40;;;;;;6184337;23;20243;-73
2023/04/27 11:44:56;;;;;;;5.20;4.70;;;15.30;63.40;;;;;;6186718;23;20172;-73
2023/04/27 11:47:24;;;;;;;12.13;5.63;;;15.80;60.30;;;;;;6186331;23;20245;-74
2023/04/27 11:49:54;;;;;;;8.13;4.82;;;15.70;60.60;;;;;;6184757;23;21043;-72
2023/04/27 11:52:22;;;;;;;6.18;4.05;;;15.30;61.10;;;;;;6186953;23;20201;-73
2023/04/27 11:54:49;;;;;;;5.45;4.30;;;15.10;61.60;;;;;;6185851;23;20249;-73
2023/04/27 11:57:16;;;;;;;6.40;4.32;;;15.40;62.40;;;;;;6186487;23;20165;-72
2023/04/27 11:59:43;;;;;;;7.40;4.78;;;15.50;61.10;;;;;;6184688;23;20209;-72
2023/04/27 12:02:11;;;;;;;5.25;4.30;;;15.80;60.50;;;;;;6186266;23;20607;-71
2023/04/27 12:04:38;;;;;;;5.68;4.78;;;15.70;60.10;;;;;;6185799;23;20219;-72
2023/04/27 12:07:07;;;;;;;6.38;4.85;;;15.40;60.60;;;;;;6186247;23;20686;-72
2023/04/27 12:09:34;;;;;;;5.07;4.60;;;15.40;60.80;;;;;;6185644;23;20272;-71
2023/04/27 12:12:03;;;;;;;5.53;4.78;;;15.30;62.10;;;;;;6185799;23;20272;-72
2023/04/27 12:14:30;;;;;;;5.57;4.72;;;15.40;61.00;;;;;;6186603;23;20165;-74
2023/04/27 12:16:56;;;;;;;8.13;4.85;;;15.50;61.10;;;;;;6185919;23;20177;-73
2023/04/27 12:19:24;;;;;;;11.27;6.93;;;15.50;62.60;;;;;;6185944;23;20278;-72
2023/04/27 12:21:51;;;;;;;11.77;4.90;;;15.70;61.60;;;;;;6184837;23;20185;-72
2023/04/27 12:24:20;;;;;;;5.80;5.13;;;15.50;61.80;;;;;;6186234;23;20245;-72
2023/04/27 12:26:46;;;;;;;5.18;4.68;;;15.50;61.30;;;;;;6185300;23;20254;-73
2023/04/27 12:29:13;;;;;;;5.03;3.92;;;15.20;61.40;;;;;;6185710;23;20209;-73
2023/04/27 12:31:41;;;;;;;14.80;4.80;;;15.20;61.60;;;;;;6185561;23;20193;-74
2023/04/27 12:34:07;;;;;;;12.90;4.50;;;15.30;62.50;;;;;;6185786;23;20246;-70
2023/04/27 12:36:35;;;;;;;6.53;5.40;;;15.30;62.90;;;;;;6186240;23;20162;-73
2023/04/27 12:39:14;;;;;;;5.30;4.85;;;15.40;62.90;;;;;;6185046;23;20197;-71
2023/04/27 12:41:43;;;;;;;5.43;4.68;;;15.20;62.40;;;;;;6183157;23;20632;-73
2023/04/27 12:44:11;;;;;;;6.22;5.47;;;15.30;62.50;;;;;;6185408;23;20163;-72
2023/04/27 12:46:38;;;;;;;9.48;4.93;;;15.30;62.60;;;;;;6185976;23;20195;-72
2023/04/27 12:49:05;;;;;;;4.30;3.90;;;15.40;63.30;;;;;;6185594;23;20201;-73
2023/04/27 12:51:33;;;;;;;5.85;4.72;;;15.20;63.50;;;;;;6184906;23;20194;-74
2023/04/27 12:54:00;;;;;;;5.85;4.47;;;15.30;63.60;;;;;;6185870;23;20476;-70